If you wish to contribute or participate in the discussions about articles you are invited to join SKYbrary as a registered user

 Actions

Tefé Airport

From SKYbrary Wiki

SBTF
Airport
ICAO: SBTF – IATA: TFF
Summary
Name Tefé Airport
Region South America and Caribbean
Territory Brazil BR.gif
Location Tefé, Amazonas
Serving Tefé
Elevation 56.083 m
184 ft56.083 m
Coordinates 3° 22' 49.01" S, 64° 43' 31.01" W
Runways
Designator Length Width Surface ROPS
15/33 2200 m7,217.848 ft
45 m147.638 ft
ASP /


METAR
Observation SBTF 172245Z 19003KT 9999 SCT010 SCT025TCU OVC090 24/22 Q1011 RETS
Station Tefe
Date/Time 17 October 2019 22:45:00
Wind direction 190°
Wind speed 03 kts
Lowest cloud amount scattered clouds
Temperature 24°C
Dew point 22°C
Humidity 88%
QNH 1011 hPa
Weather condition n/a

Tefé Airport is the airport serving Tefé, Brazil.

Climatology

Tropical rainforest climate (Köppen climate classification Af)

Maps

Terrain

Loading map...

Airport Layout

Loading map...


Accidents & Serious Incidents at or in vicinity of SBTF

None on SKYbrary